Time;durP1;ratioP1;P1;durP2;ratioP2;P2;SDS_P1;SDS_P2;PMS_P1;PMS_P2;Temp;Humidity;BMP_temperature;BMP_pressure;BME280_temperature;BME280_humidity;BME280_pressure;Samples;Min_cycle;Max_cycle;Signal;HPM_P1;HPM_P2
2022/02/10 00:15:55;;;;;;;3.30;2.40;;;6.90;99.90;;;;;;5076371;28;20438;-84
2022/02/10 00:20:57;;;;;;;11.93;3.80;;;6.80;99.90;;;;;;5084081;28;20040;-84
2022/02/10 00:34:26;;;;;;;3.17;2.28;;;6.90;99.90;;;;;;5084968;28;20035;-83
2022/02/10 00:37:11;;;;;;;4.95;2.90;;;6.80;99.90;;;;;;5068373;28;20394;-83
2022/02/10 00:42:06;;;;;;;5.93;2.15;;;6.80;99.90;;;;;;5079997;28;20469;-84
2022/02/10 00:44:32;;;;;;;9.57;3.47;;;6.80;99.90;;;;;;5080276;28;20074;-84
2022/02/10 00:46:58;;;;;;;7.75;3.00;;;6.90;99.90;;;;;;5083554;28;20048;-83
2022/02/10 00:49:24;;;;;;;5.13;3.28;;;6.90;99.90;;;;;;5090299;28;20032;-84
2022/02/10 00:51:50;;;;;;;6.38;3.40;;;6.80;99.90;;;;;;5072063;28;20040;-84
2022/02/10 00:54:19;;;;;;;;;;;6.90;99.90;;;;;;5089239;28;20044;-84
2022/02/10 00:56:45;;;;;;;6.47;3.15;;;6.80;99.90;;;;;;5092028;28;20346;-84
2022/02/10 01:31:47;;;;;;;5.80;3.15;;;6.70;99.90;;;;;;5085686;28;20433;-83
2022/02/10 01:34:13;;;;;;;2.80;2.42;;;6.70;99.90;;;;;;5088128;28;20123;-83
2022/02/10 01:36:39;;;;;;;4.13;2.60;;;6.60;99.90;;;;;;5089632;28;20404;-83
2022/02/10 01:39:06;;;;;;;5.03;2.88;;;6.60;99.90;;;;;;5062221;28;20040;-82
2022/02/10 01:58:25;;;;;;;2.08;1.30;;;6.60;99.90;;;;;;5082736;28;20131;-82
2022/02/10 02:03:36;;;;;;;2.63;1.77;;;6.60;99.90;;;;;;5085470;28;20082;-82
2022/02/10 02:06:10;;;;;;;;;;;6.60;99.90;;;;;;5108217;28;20397;-82
2022/02/10 02:08:39;;;;;;;2.95;1.98;;;6.60;99.90;;;;;;5072568;28;19924;-83
2022/02/10 02:11:05;;;;;;;2.92;1.92;;;6.60;99.90;;;;;;5105654;28;20120;-84
2022/02/10 02:13:31;;;;;;;2.03;1.55;;;6.50;99.90;;;;;;5088461;28;20041;-82
2022/02/10 02:15:57;;;;;;;1.45;1.35;;;6.50;99.90;;;;;;5083093;28;20041;-83
2022/02/10 02:18:23;;;;;;;;;;;6.60;99.90;;;;;;5060822;28;20087;-83
2022/02/10 02:20:52;;;;;;;2.08;1.88;;;6.50;99.90;;;;;;5071880;28;19952;-82
2022/02/10 02:23:19;;;;;;;6.47;1.90;;;6.50;99.90;;;;;;5079500;28;20370;-82
2022/02/10 02:25:54;;;;;;;3.97;1.83;;;6.50;99.90;;;;;;5090636;28;20447;-83
2022/02/10 02:28:20;;;;;;;2.17;1.85;;;6.50;99.90;;;;;;5072888;28;20052;-82
2022/02/10 02:30:54;;;;;;;3.45;1.90;;;6.60;99.90;;;;;;5081399;28;20051;-82
2022/02/10 03:08:26;;;;;;;4.22;1.92;;;6.40;99.90;;;;;;5085877;28;20104;-82
2022/02/10 03:11:02;;;;;;;2.55;1.67;;;6.40;99.90;;;;;;5107818;28;20043;-83
2022/02/10 03:13:33;;;;;;;7.28;2.72;;;6.40;99.90;;;;;;5084640;28;20522;-82
2022/02/10 04:10:12;;;;;;;2.72;2.03;;;6.40;99.90;;;;;;5064793;28;20070;-81
2022/02/10 04:15:25;;;;;;;3.17;2.13;;;6.40;99.90;;;;;;5083147;28;20098;-82
2022/02/10 04:18:57;;;;;;;4.32;2.97;;;6.40;99.90;;;;;;5076710;28;20487;-82
2022/02/10 04:20:52;;;;;;;4.50;3.03;;;6.40;99.90;;;;;;5071195;28;20389;-82
2022/02/10 04:29:12;;;;;;;5.13;3.30;;;6.40;99.90;;;;;;5092322;28;20405;-82
2022/02/10 05:19:42;;;;;;;8.80;4.70;;;6.30;99.90;;;;;;5081758;28;20051;-82
2022/02/10 05:35:35;;;;;;;7.05;4.22;;;6.30;99.90;;;;;;5070852;28;20556;-82
2022/02/10 05:38:12;;;;;;;9.05;4.00;;;6.20;99.90;;;;;;5089084;28;20059;-82
2022/02/10 06:44:31;;;;;;;6.65;4.25;;;6.00;99.90;;;;;;5081601;28;20051;-83
2022/02/10 06:56:50;;;;;;;7.72;4.60;;;5.90;99.90;;;;;;5051641;28;20051;-83
2022/02/10 07:07:21;;;;;;;14.25;4.68;;;5.90;99.90;;;;;;5079590;28;20097;-84
2022/02/10 07:47:43;;;;;;;6.63;4.43;;;5.80;99.90;;;;;;5079058;28;20097;-82
2022/02/10 07:50:36;;;;;;;15.32;7.07;;;5.90;99.90;;;;;;5082956;28;20438;-85
2022/02/10 07:58:39;;;;;;;8.13;4.57;;;5.90;99.90;;;;;;5085928;28;20048;-83
2022/02/10 09:25:01;;;;;;;4.65;1.88;;;6.70;99.90;;;;;;5081058;28;20055;-83
2022/02/10 09:56:50;;;;;;;4.20;1.85;;;6.80;99.90;;;;;;5091967;28;20042;-83
2022/02/10 10:04:22;;;;;;;2.63;2.15;;;6.80;99.90;;;;;;5075480;28;20509;-83
2022/02/10 10:15:00;;;;;;;1.23;1.13;;;6.80;99.90;;;;;;5081712;28;20493;-84
2022/02/10 10:20:25;;;;;;;1.45;1.10;;;7.10;99.90;;;;;;5074725;28;20052;-82
2022/02/10 10:53:27;;;;;;;2.20;1.33;;;7.80;99.90;;;;;;5089005;28;20047;-83
2022/02/10 10:59:07;;;;;;;3.47;1.85;;;7.80;99.90;;;;;;5081034;28;20032;-86
2022/02/10 11:41:24;;;;;;;2.47;1.25;;;8.30;99.90;;;;;;5077109;28;20726;-85
2022/02/10 11:48:08;;;;;;;8.90;1.80;;;8.30;99.90;;;;;;5090504;28;20044;-84
2022/02/10 14:09:26;;;;;;;6.05;1.63;;;7.50;99.90;;;;;;5062088;28;20588;-81
2022/02/10 14:17:02;;;;;;;9.80;1.58;;;7.40;99.90;;;;;;5062043;28;20044;-81
2022/02/10 14:19:37;;;;;;;2.85;1.25;;;7.40;99.90;;;;;;5067747;28;20032;-80
2022/02/10 14:22:36;;;;;;;3.75;1.58;;;7.40;99.90;;;;;;5045511;28;20123;-80
2022/02/10 14:27:43;;;;;;;5.28;1.30;;;7.30;99.90;;;;;;5050303;28;20106;-82
2022/02/10 14:30:09;;;;;;;4.65;1.52;;;7.30;99.90;;;;;;5057897;28;20049;-83
2022/02/10 14:32:41;;;;;;;1.17;1.08;;;7.30;99.90;;;;;;5058807;28;20040;-81
2022/02/10 14:35:14;;;;;;;3.20;1.33;;;7.30;99.90;;;;;;5049238;28;20041;-81
2022/02/10 16:17:32;;;;;;;5.82;1.73;;;6.30;99.90;;;;;;5091074;28;20479;-83
2022/02/10 16:20:28;;;;;;;6.15;1.50;;;6.50;99.90;;;;;;5061773;28;20036;-81
2022/02/10 16:23:00;;;;;;;6.25;1.33;;;5.80;99.90;;;;;;5061682;28;20036;-83
2022/02/10 16:26:01;;;;;;;3.53;0.88;;;5.80;99.90;;;;;;5079197;28;20537;-85
2022/02/10 16:28:44;;;;;;;7.15;1.83;;;5.70;99.90;;;;;;5086287;28;20058;-85
2022/02/10 16:32:51;;;;;;;3.90;1.42;;;5.70;99.90;;;;;;5078878;28;20097;-87
2022/02/10 16:35:12;;;;;;;;;;;5.10;99.90;;;;;;5011563;28;20180;-83
2022/02/10 16:39:57;;;;;;;2.38;1.75;;;5.60;99.90;;;;;;5056893;27;20904;-84
2022/02/10 16:42:22;;;;;;;3.47;1.70;;;5.50;99.90;;;;;;5040301;28;20187;-87
2022/02/10 16:44:48;;;;;;;3.70;1.65;;;5.40;99.90;;;;;;5016262;28;20138;-84
2022/02/10 16:47:15;;;;;;;3.33;1.55;;;5.40;99.90;;;;;;5029643;28;20049;-85
2022/02/10 16:49:49;;;;;;;0.70;0.70;;;5.40;99.90;;;;;;5055610;28;20039;-87
2022/02/10 16:52:25;;;;;;;2.90;1.15;;;5.30;99.90;;;;;;5010462;28;20076;-85
2022/02/10 16:55:02;;;;;;;1.55;1.35;;;5.40;99.90;;;;;;5058666;28;20041;-85
2022/02/10 16:57:42;;;;;;;1.50;1.40;;;5.30;99.90;;;;;;5061384;28;20384;-84
2022/02/10 17:00:30;;;;;;;5.28;1.40;;;5.20;99.90;;;;;;5056888;28;20050;-86
2022/02/10 17:37:27;;;;;;;11.05;1.70;;;4.90;99.90;;;;;;5030719;28;20171;-85
2022/02/10 17:53:05;;;;;;;5.32;1.77;;;4.80;99.90;;;;;;5033305;28;20549;-85
2022/02/10 17:55:31;;;;;;;2.25;1.60;;;4.80;99.90;;;;;;5065800;28;20046;-86
2022/02/10 17:57:58;;;;;;;6.43;1.25;;;4.80;99.90;;;;;;5044501;28;20050;-85
2022/02/10 18:00:25;;;;;;;6.55;1.77;;;4.80;99.90;;;;;;5013458;28;20052;-85
2022/02/10 18:02:58;;;;;;;8.55;1.90;;;4.80;99.90;;;;;;5051028;28;20131;-85
2022/02/10 18:07:58;;;;;;;2.72;1.90;;;4.80;99.90;;;;;;5062553;28;20049;-84
2022/02/10 18:15:42;;;;;;;5.82;2.25;;;4.80;99.90;;;;;;5021269;28;20059;-84
2022/02/10 18:18:19;;;;;;;2.40;1.75;;;4.90;99.90;;;;;;5036215;28;20049;-84
2022/02/10 18:20:52;;;;;;;1.30;1.17;;;4.90;99.90;;;;;;5039646;28;20103;-85
2022/02/10 18:23:23;;;;;;;2.28;1.85;;;4.90;99.90;;;;;;5043535;28;20041;-84
2022/02/10 18:26:02;;;;;;;3.47;1.42;;;4.80;99.90;;;;;;5046517;28;20053;-85
2022/02/10 18:29:18;;;;;;;2.03;1.27;;;4.80;99.90;;;;;;4991574;28;20565;-85
2022/02/10 19:06:12;;;;;;;2.30;1.30;;;4.50;99.90;;;;;;5065134;28;20037;-84
2022/02/10 19:08:59;;;;;;;2.42;1.42;;;4.40;99.90;;;;;;5018381;28;20041;-84
2022/02/10 19:11:25;;;;;;;2.75;1.63;;;4.40;99.90;;;;;;5040561;28;20049;-85
2022/02/10 19:13:54;;;;;;;2.88;1.83;;;4.50;99.90;;;;;;5051654;28;20132;-84
2022/02/10 19:16:20;;;;;;;3.60;1.50;;;4.60;99.90;;;;;;5037454;28;20404;-84
2022/02/10 19:18:45;;;;;;;1.25;1.15;;;4.70;99.90;;;;;;5044815;28;20133;-84
2022/02/10 19:21:11;;;;;;;5.97;1.35;;;4.40;99.90;;;;;;5054314;28;20120;-84
2022/02/10 19:23:37;;;;;;;2.75;1.92;;;4.40;99.90;;;;;;5048782;28;20064;-86
2022/02/10 19:26:03;;;;;;;4.22;1.60;;;4.90;99.90;;;;;;5040550;28;20046;-84
2022/02/10 19:28:29;;;;;;;1.98;1.38;;;4.40;99.90;;;;;;5024363;28;20081;-85
2022/02/10 19:30:55;;;;;;;3.22;2.08;;;4.40;99.90;;;;;;5020785;28;20041;-84
2022/02/10 19:33:21;;;;;;;2.65;1.10;;;4.40;99.90;;;;;;5050707;28;20107;-84
2022/02/10 19:35:51;;;;;;;2.47;1.25;;;4.40;99.90;;;;;;5059262;28;20045;-85
2022/02/10 19:38:21;;;;;;;15.07;3.13;;;4.40;99.90;;;;;;5030056;28;20514;-84
2022/02/10 19:40:51;;;;;;;1.23;1.13;;;4.30;99.90;;;;;;5031412;28;20103;-84
2022/02/10 19:43:19;;;;;;;4.28;1.67;;;4.30;99.90;;;;;;5064147;28;20089;-84
2022/02/10 19:45:47;;;;;;;2.60;2.20;;;4.20;99.90;;;;;;5043346;28;20034;-84
2022/02/10 19:48:13;;;;;;;1.05;1.00;;;4.20;99.90;;;;;;5004994;28;20080;-84
2022/02/10 19:50:39;;;;;;;;;;;4.20;99.90;;;;;;5060519;28;20173;-85
2022/02/10 19:53:08;;;;;;;2.55;1.77;;;4.20;99.90;;;;;;4990880;28;19979;-85
2022/02/10 19:55:37;;;;;;;3.63;2.13;;;4.40;99.90;;;;;;5050713;28;20513;-85
2022/02/10 19:58:10;;;;;;;1.92;1.40;;;4.90;99.90;;;;;;5018579;28;20042;-84
2022/02/10 20:00:41;;;;;;;2.90;1.30;;;4.20;99.90;;;;;;5065453;28;20044;-84
2022/02/10 20:03:19;;;;;;;2.45;1.20;;;4.20;99.90;;;;;;5065818;28;20049;-84
2022/02/10 20:05:46;;;;;;;4.30;1.33;;;4.10;99.90;;;;;;5035144;28;20233;-84
2022/02/10 20:08:18;;;;;;;6.55;1.77;;;4.10;99.90;;;;;;5046605;28;20041;-84
2022/02/10 20:10:44;;;;;;;6.65;1.45;;;4.10;99.90;;;;;;5048182;28;20041;-85
2022/02/10 20:13:16;;;;;;;0.98;0.95;;;4.10;99.90;;;;;;5047675;28;20665;-85
2022/02/10 20:15:43;;;;;;;8.77;1.60;;;4.10;99.90;;;;;;5047925;28;20076;-84
2022/02/10 20:18:12;;;;;;;6.75;1.98;;;4.10;99.90;;;;;;5063651;28;20045;-85
2022/02/10 20:20:37;;;;;;;7.53;2.30;;;4.00;99.90;;;;;;5035488;28;20041;-85
2022/02/10 20:23:03;;;;;;;3.72;1.25;;;4.10;99.90;;;;;;5053665;28;20041;-85
2022/02/10 20:25:31;;;;;;;2.22;1.35;;;4.10;99.90;;;;;;5051738;28;20061;-85
2022/02/10 20:27:57;;;;;;;5.55;2.20;;;4.10;99.90;;;;;;5034455;28;20049;-85
2022/02/10 20:30:24;;;;;;;7.28;1.63;;;4.10;99.90;;;;;;5063519;28;20133;-85
2022/02/10 20:32:50;;;;;;;6.47;2.22;;;4.00;99.90;;;;;;4983923;28;20045;-84
2022/02/10 20:35:17;;;;;;;3.33;1.10;;;3.90;99.90;;;;;;5019641;28;20569;-83
2022/02/10 20:37:43;;;;;;;1.23;1.00;;;3.80;99.90;;;;;;4994710;28;20046;-84
2022/02/10 20:40:10;;;;;;;2.08;1.50;;;3.80;99.90;;;;;;5034954;28;20053;-85
2022/02/10 20:42:36;;;;;;;10.25;1.92;;;3.80;99.90;;;;;;5010694;28;20092;-85
2022/02/10 20:45:04;;;;;;;3.28;1.88;;;3.70;99.90;;;;;;4995111;28;20045;-83
2022/02/10 20:47:29;;;;;;;4.03;1.88;;;3.60;99.90;;;;;;5054602;28;20482;-83
2022/02/10 20:49:55;;;;;;;11.80;2.13;;;3.60;99.90;;;;;;5045444;28;20153;-83
2022/02/10 20:52:21;;;;;;;6.15;1.55;;;3.50;99.90;;;;;;5001412;28;20046;-84
2022/02/10 20:54:47;;;;;;;1.55;1.30;;;3.80;99.90;;;;;;5056869;28;20078;-83
2022/02/10 20:57:14;;;;;;;7.47;2.35;;;3.40;99.90;;;;;;5010168;28;20050;-83
2022/02/10 20:59:43;;;;;;;1.50;1.40;;;3.40;99.90;;;;;;5057245;28;20087;-83
2022/02/10 21:04:43;;;;;;;3.25;2.17;;;4.10;99.90;;;;;;5043774;28;20058;-83
2022/02/10 21:09:59;;;;;;;5.78;1.70;;;3.30;99.90;;;;;;5052238;28;20041;-83
2022/02/10 21:12:20;;;;;;;2.90;1.48;;;3.40;99.90;;;;;;5026295;28;20054;-84
2022/02/10 21:14:46;;;;;;;6.78;1.80;;;3.30;99.90;;;;;;5057007;28;20052;-84
2022/02/10 21:17:19;;;;;;;4.95;2.33;;;3.30;99.90;;;;;;5060591;28;20045;-84
2022/02/10 21:19:44;;;;;;;10.18;1.55;;;3.30;99.90;;;;;;5011238;28;20117;-84
2022/02/10 21:22:14;;;;;;;1.65;1.15;;;3.70;99.90;;;;;;4996333;28;20038;-84
2022/02/10 21:24:55;;;;;;;2.03;1.70;;;3.30;99.90;;;;;;5039196;28;20367;-84
2022/02/10 21:29:54;;;;;;;6.20;1.40;;;3.10;99.90;;;;;;5015828;28;20045;-84
2022/02/10 21:32:19;;;;;;;3.03;1.23;;;3.20;99.90;;;;;;5044481;28;20052;-83
2022/02/10 21:35:18;;;;;;;5.93;1.35;;;3.50;99.90;;;;;;5047720;28;20467;-85
2022/02/10 21:37:31;;;;;;;5.22;1.73;;;2.90;99.90;;;;;;5028826;28;20042;-82
2022/02/10 21:40:12;;;;;;;9.77;1.88;;;3.00;99.90;;;;;;5032574;28;20398;-82
2022/02/10 22:09:54;;;;;;;5.25;2.13;;;;;;;;;;5059200;28;20053;-83
2022/02/10 22:20:31;;;;;;;8.38;1.25;;;;;;;;;;5046390;28;20085;-82
2022/02/10 22:23:07;;;;;;;4.65;1.98;;;;;;;;;;5028958;28;20402;-82
2022/02/10 22:25:35;;;;;;;1.60;1.50;;;;;;;;;;5045517;28;20045;-82
2022/02/10 22:28:11;;;;;;;6.47;1.77;;;;;;;;;;5041956;28;20419;-82
2022/02/10 22:30:50;;;;;;;1.30;1.20;;;;;;;;;;5041531;28;20483;-82
2022/02/10 22:35:43;;;;;;;1.67;1.58;;;;;;;;;;5028861;28;20054;-83
2022/02/10 22:38:09;;;;;;;;;;;;;;;;;;5028601;28;20084;-82
2022/02/10 22:41:20;;;;;;;7.00;2.05;;;;;;;;;;5054972;28;20040;-83
2022/02/10 22:43:21;;;;;;;1.20;1.10;;;;;;;;;;5008173;28;20117;-84
2022/02/10 22:45:47;;;;;;;;;;;;;;;;;;5030266;28;20042;-84
2022/02/10 22:48:14;;;;;;;3.53;1.65;;;;;;;;;;5046839;28;19917;-83
2022/02/10 22:50:40;;;;;;;3.55;1.80;;;;;;;;;;5045589;28;20041;-84
2022/02/10 22:53:06;;;;;;;;;;;;;;;;;;5029447;28;20056;-85
2022/02/10 22:55:33;;;;;;;1.80;1.35;;;;;;;;;;5044378;28;19921;-83
2022/02/10 22:57:59;;;;;;;0.90;0.90;;;;;;;;;;5032018;28;20057;-82
2022/02/10 23:00:30;;;;;;;1.23;1.13;;;;;;;;;;5027365;28;20065;-84
2022/02/10 23:02:56;;;;;;;5.72;2.00;;;;;;;;;;5044812;28;20052;-83
2022/02/10 23:05:23;;;;;;;3.97;2.22;;;;;;;;;;5062735;28;20432;-83
2022/02/10 23:07:55;;;;;;;3.67;1.88;;;;;;;;;;5029010;28;20499;-85
2022/02/10 23:13:06;;;;;;;1.58;1.40;;;;;;;;;;5046184;28;20041;-84
2022/02/10 23:15:37;;;;;;;1.90;1.42;;;;;;;;;;5027966;28;20041;-83
2022/02/10 23:18:10;;;;;;;2.05;1.77;;;;;;;;;;5044877;28;20529;-85
2022/02/10 23:20:37;;;;;;;1.10;1.00;;;;;;;;;;5061412;28;20096;-84
2022/02/10 23:23:05;;;;;;;4.32;1.40;;;;;;;;;;5038335;28;20495;-86
2022/02/10 23:25:32;;;;;;;3.28;1.98;;;;;;;;;;5027885;28;20077;-85
2022/02/10 23:27:58;;;;;;;2.15;1.35;;;;;;;;;;5039169;28;20112;-84
2022/02/10 23:30:24;;;;;;;;;;;;;;;;;;5028496;28;20434;-85
2022/02/10 23:32:53;;;;;;;2.10;1.40;;;;;;;;;;5061985;28;19917;-86
2022/02/10 23:38:04;;;;;;;1.90;1.60;;;;;;;;;;5061298;28;20045;-86
2022/02/10 23:40:34;;;;;;;2.38;1.35;;;;;;;;;;5014885;28;20068;-83
2022/02/10 23:43:00;;;;;;;3.40;1.70;;;;;;;;;;5032164;28;20178;-85
2022/02/10 23:45:28;;;;;;;2.60;1.30;;;;;;;;;;5028991;28;20077;-84
2022/02/10 23:47:54;;;;;;;1.75;1.65;;;;;;;;;;5039316;28;20383;-84
2022/02/10 23:50:26;;;;;;;2.55;2.00;;;;;;;;;;5046744;28;20033;-84
2022/02/10 23:52:55;;;;;;;4.93;1.45;;;;;;;;;;5045672;28;20059;-84
2022/02/10 23:55:32;;;;;;;2.85;1.33;;;;;;;;;;5024432;28;20054;-85
